Onnered — WDG4753 — position and weather

sailwx.info

Track history (hours):
 
Tides and Currents Weather Stations Pressure Air Temp Water Temp Dewpoint Dewpoint Depression Visibility Wind Speed Wind Dir Waves Ship Positions

Onnered

Owner: H&L Axelsson, Inc., Cape May, NJ. More information available from US FCC via Universal Licensing System and Coast Guard Vessel Documentation Center.

Last reported at 2017-Sep-24 12:40 UTC. Time now 2017-Nov-20 09:47 UTC.
Position N 38°57' W 074°52'.
Warning: this ship's position is 56 days out of date.

Length 18 m.

Type: Fishing. MMSI: 367539750.

Date/timePositionNaut miles runAvg speedWind from/ knotsBaromVisibWave heightAir tempDewpointWater temp
2017-Sep-24 12:40N 38°57' W 074°52'1 8.2
2017-Sep-24 12:30N 38°56' W 074°52'5 9.2
2017-Sep-24 12:00N 38°58' W 074°47'5 9.2
2017-Sep-24 11:28N 39°02' W 074°42'4 9.1
2017-Sep-24 10:59N 39°04' W 074°37'5 9.1
2017-Sep-24 10:29N 39°07' W 074°33'5 9.0
2017-Sep-24 09:59N 39°10' W 074°29'6 9.0
2017-Sep-24 09:20N 39°15' W 074°23'4 9.0
2017-Sep-24 08:51N 39°18' W 074°20'3 9.0
2017-Sep-24 08:29N 39°20' W 074°16'5 9.0
2017-Sep-24 07:59N 39°23' W 074°12'5 8.9
2017-Sep-24 07:26N 39°26' W 074°07'4 8.8
2017-Sep-24 06:56N 39°29' W 074°03'  
2017-Sep-18 21:33N 42°20' W 070°37'0 7.7
2017-Sep-18 21:30N 42°20' W 070°37'4 8.0
2017-Sep-18 21:00N 42°24' W 070°38'4 8.6
2017-Sep-18 20:30N 42°28' W 070°39'4 8.6
2017-Sep-18 19:59N 42°33' W 070°40'4 8.0
2017-Sep-18 19:30N 42°36' W 070°40'1 1.1
2017-Sep-18 18:58N 42°37' W 070°39'0 0.0
2017-Sep-18 18:28N 42°37' W 070°39'0 0.0
2017-Sep-18 17:55N 42°37' W 070°39'0 0.0
2017-Sep-18 17:28N 42°37' W 070°39'0 0.0
2017-Sep-18 16:55N 42°37' W 070°39'0 0.0
2017-Sep-18 16:28N 42°37' W 070°39'0 0.0
2017-Sep-18 15:55N 42°37' W 070°39'0 0.0
2017-Sep-18 15:25N 42°37' W 070°39'0 0.0
2017-Sep-18 14:58N 42°37' W 070°39'0 0.0
2017-Sep-18 14:28N 42°37' W 070°39'0 0.0
2017-Sep-18 13:58N 42°37' W 070°39'0 0.0
2017-Sep-18 13:28N 42°37' W 070°39'0 0.0
2017-Sep-18 12:55N 42°37' W 070°39'0 0.0
2017-Sep-18 12:28N 42°37' W 070°39'0 0.0
2017-Sep-18 11:58N 42°37' W 070°39'0 0.0
2017-Sep-18 11:25N 42°37' W 070°39'0 0.0
2017-Sep-18 10:55N 42°37' W 070°39'1 2.2
2017-Sep-18 10:30N 42°36' W 070°40'2 3.5
2017-Sep-18 10:00N 42°35' W 070°38'3 6.7
2017-Sep-18 09:30N 42°37' W 070°34'3 6.3
2017-Sep-18 09:00N 42°39' W 070°32'3 6.6
2017-Sep-18 08:30N 42°42' W 070°32'4 6.6
2017-Sep-18 07:57N 42°45' W 070°36'13 1.3
2017-Sep-17 21:49N 42°56' W 070°28'2 8.0
2017-Sep-17 21:30N 42°54' W 070°29'4 7.9
2017-Sep-17 21:00N 42°50' W 070°29'4 7.9
2017-Sep-17 20:31N 42°46' W 070°30'4 8.0
2017-Sep-17 20:00N 42°42' W 070°31'4 8.1
2017-Sep-17 19:30N 42°38' W 070°33'4 7.5
2017-Sep-17 19:01N 42°36' W 070°37'3 5.7
2017-Sep-17 18:31N 42°35' W 070°40'2 4.9
2017-Sep-17 18:00N 42°37' W 070°39'0 0.0
2017-Sep-17 17:30N 42°37' W 070°39'0 0.0
2017-Sep-17 17:00N 42°37' W 070°39'0 0.0
2017-Sep-17 16:30N 42°37' W 070°39'0 0.0
2017-Sep-17 15:51N 42°37' W 070°39'0 0.0
2017-Sep-17 15:30N 42°37' W 070°39'0 0.0
2017-Sep-17 15:00N 42°37' W 070°39'0 0.0
2017-Sep-17 14:27N 42°37' W 070°39'0 0.0
2017-Sep-17 14:00N 42°37' W 070°39'0 0.0
2017-Sep-17 13:30N 42°37' W 070°39'0 0.0
2017-Sep-17 12:57N 42°37' W 070°39'0 0.0
2017-Sep-17 12:27N 42°37' W 070°39'0 0.0
2017-Sep-17 11:57N 42°37' W 070°39'0 0.0
2017-Sep-17 11:30N 42°37' W 070°39'0 0.0
2017-Sep-17 10:57N 42°37' W 070°39'0 0.0
2017-Sep-17 10:24N 42°37' W 070°39'0 0.0
2017-Sep-17 10:00N 42°37' W 070°39'0 0.0
2017-Sep-17 09:27N 42°37' W 070°39'0 0.0
2017-Sep-17 09:01N 42°37' W 070°39'0 0.0
2017-Sep-17 08:30N 42°37' W 070°39'0 0.0
2017-Sep-17 07:57N 42°37' W 070°39'0 0.0
2017-Sep-17 07:30N 42°37' W 070°39'0 0.0
2017-Sep-17 06:57N 42°37' W 070°39'0 0.0
2017-Sep-17 06:27N 42°37' W 070°39'0 0.0
2017-Sep-17 05:51N 42°37' W 070°39'0 0.0
2017-Sep-17 05:27N 42°37' W 070°39'0 0.0
2017-Sep-17 04:54N 42°37' W 070°39'0 0.0
2017-Sep-17 04:30N 42°37' W 070°39'0 0.0
2017-Sep-17 04:00N 42°37' W 070°39'0 0.0
2017-Sep-17 03:30N 42°37' W 070°39'0 0.0
2017-Sep-17 02:57N 42°37' W 070°39'0 0.0
2017-Sep-17 02:27N 42°37' W 070°39'0 0.0
2017-Sep-17 02:00N 42°37' W 070°39'0 0.0
2017-Sep-17 01:30N 42°37' W 070°39'0 0.0
2017-Sep-17 00:57N 42°37' W 070°39'0 0.0
2017-Sep-17 00:27N 42°37' W 070°39'0 0.0
2017-Sep-17 00:00N 42°37' W 070°39'0 0.0
2017-Sep-16 23:30N 42°37' W 070°39'0 0.0
2017-Sep-16 23:00N 42°37' W 070°39'0 0.0
2017-Sep-16 22:27N 42°37' W 070°39'0 0.0
2017-Sep-16 22:00N 42°37' W 070°39'0 0.0
2017-Sep-16 21:24N 42°37' W 070°39'0 0.0
2017-Sep-16 20:57N 42°37' W 070°39'0 0.0
2017-Sep-16 20:30N 42°37' W 070°39'0 0.0
2017-Sep-16 20:00N 42°37' W 070°39'0 0.0
2017-Sep-16 19:30N 42°37' W 070°39'0 0.0
2017-Sep-16 18:57N 42°37' W 070°39'0 0.0
2017-Sep-16 18:30N 42°37' W 070°39'0 0.0
2017-Sep-16 17:57N 42°37' W 070°39'0 0.0
2017-Sep-16 17:30N 42°37' W 070°39'0 0.0
2017-Sep-16 16:57N 42°37' W 070°39'0 0.0
2017-Sep-16 16:24N 42°37' W 070°39'0 0.0
2017-Sep-16 16:00N 42°37' W 070°39'0 0.0
2017-Sep-16 15:27N 42°37' W 070°39'0 0.0
2017-Sep-16 15:00N 42°37' W 070°39'0 0.0
2017-Sep-16 14:27N 42°37' W 070°39'0 0.0
2017-Sep-16 13:51N 42°37' W 070°39'0 0.0
2017-Sep-16 13:31N 42°37' W 070°39'0 0.0
2017-Sep-16 13:00N 42°37' W 070°39'0 0.0
2017-Sep-16 12:19N 42°37' W 070°39'0 0.0
2017-Sep-16 12:01N 42°37' W 070°39'0 0.0
2017-Sep-16 11:30N 42°37' W 070°39'0 0.0
2017-Sep-16 11:01N 42°37' W 070°39'0 0.0
2017-Sep-16 10:24N 42°37' W 070°39'0 0.0
2017-Sep-16 09:51N 42°37' W 070°39'0 0.0
2017-Sep-16 09:30N 42°37' W 070°39'0 0.0
2017-Sep-16 08:57N 42°37' W 070°39'0 0.0
2017-Sep-16 08:24N 42°37' W 070°39'0 0.0
2017-Sep-16 07:57N 42°37' W 070°39'0 0.0
2017-Sep-16 07:21N 42°37' W 070°39'0 0.0
2017-Sep-16 07:01N 42°37' W 070°39'0 0.0
2017-Sep-16 06:21N 42°37' W 070°39'0 0.0
2017-Sep-16 05:57N 42°37' W 070°39'0 0.0
2017-Sep-16 05:25N 42°37' W 070°39'0 0.0
2017-Sep-16 04:45N 42°37' W 070°39'0 0.0
2017-Sep-16 04:27N 42°37' W 070°39'0 0.0
2017-Sep-16 03:52N 42°37' W 070°39'0 0.0
2017-Sep-16 03:31N 42°37' W 070°39'0 0.0
2017-Sep-16 02:57N 42°37' W 070°39'0 0.0
2017-Sep-16 02:30N 42°37' W 070°39'0 0.0
2017-Sep-16 02:01N 42°37' W 070°39'0 0.0
2017-Sep-16 01:30N 42°37' W 070°39'0 0.0
2017-Sep-16 00:54N 42°37' W 070°39'0 0.0
2017-Sep-16 00:30N 42°37' W 070°39'0 0.0
2017-Sep-16 00:00N 42°37' W 070°39'0 0.0
2017-Sep-15 23:27N 42°37' W 070°39'0 0.0
2017-Sep-15 22:57N 42°37' W 070°39'0 0.0
2017-Sep-15 22:24N 42°37' W 070°39'0 0.0
2017-Sep-15 22:00N 42°37' W 070°39'0 0.0
2017-Sep-15 21:27N 42°37' W 070°39'0 0.0
2017-Sep-15 21:00N 42°37' W 070°39'0 0.0
2017-Sep-15 20:30N 42°37' W 070°39'0 0.0
2017-Sep-15 20:00N 42°37' W 070°39'0 0.0
2017-Sep-15 19:27N 42°37' W 070°39'0 0.0
2017-Sep-15 18:42N 42°37' W 070°39'0 0.0
2017-Sep-15 18:27N 42°37' W 070°39'0 0.0
2017-Sep-15 18:00N 42°37' W 070°39'0 0.0
2017-Sep-15 17:30N 42°37' W 070°39'0 0.0
2017-Sep-15 16:57N 42°37' W 070°39'0 0.0
2017-Sep-15 16:30N 42°37' W 070°39'0 0.0
2017-Sep-15 16:00N 42°37' W 070°39'0 0.0
2017-Sep-15 15:31N 42°37' W 070°39'0 0.0
2017-Sep-15 15:00N 42°37' W 070°39'0 0.0
2017-Sep-15 14:31N 42°37' W 070°39'0 0.0
2017-Sep-15 13:48N 42°37' W 070°39'0 0.0
2017-Sep-15 13:30N 42°37' W 070°39'0 0.0
2017-Sep-15 13:00N 42°37' W 070°39'0 0.0
2017-Sep-15 12:21N 42°37' W 070°39'0 0.0
2017-Sep-15 11:57N 42°37' W 070°39'0 0.0
2017-Sep-15 11:30N 42°37' W 070°39'0 0.0
2017-Sep-15 10:52N 42°37' W 070°39'0 0.0
2017-Sep-15 10:27N 42°37' W 070°39'0 0.0
2017-Sep-15 10:00N 42°37' W 070°39'0 0.0
2017-Sep-15 09:27N 42°37' W 070°39'0 0.0
2017-Sep-15 08:57N 42°37' W 070°39'0 0.0
2017-Sep-15 08:28N 42°37' W 070°39'0 0.0
2017-Sep-15 08:00N 42°37' W 070°39'0 0.0
2017-Sep-15 07:27N 42°37' W 070°39'0 0.0
2017-Sep-15 06:57N 42°37' W 070°39'0 0.0
2017-Sep-15 06:30N 42°37' W 070°39'0 0.0
2017-Sep-15 05:57N 42°37' W 070°39'0 0.0
2017-Sep-15 05:28N 42°37' W 070°39'0 0.0
2017-Sep-15 04:45N 42°37' W 070°39'0 0.0
2017-Sep-15 04:30N 42°37' W 070°39'0 0.0
2017-Sep-15 03:52N 42°37' W 070°39'0 0.0
2017-Sep-15 03:30N 42°37' W 070°39'0 0.0
2017-Sep-15 02:54N 42°37' W 070°39'0 0.0
2017-Sep-15 02:28N 42°37' W 070°39'0 0.0
2017-Sep-15 01:57N 42°37' W 070°39'0 0.0
2017-Sep-15 01:27N 42°37' W 070°39'0 0.0
2017-Sep-15 00:58N 42°37' W 070°39'0 0.0
2017-Sep-15 00:27N 42°37' W 070°39'0 0.0
2017-Sep-15 00:00N 42°37' W 070°39'0 0.0
2017-Sep-14 23:31N 42°37' W 070°39'0 0.0
2017-Sep-14 22:57N 42°37' W 070°39'0 0.0
2017-Sep-14 22:30N 42°37' W 070°39'0 0.0
2017-Sep-14 21:51N 42°37' W 070°39'0 0.0
2017-Sep-14 21:25N 42°37' W 070°39'0 0.0
2017-Sep-14 21:00N 42°37' W 070°39'0 0.0
2017-Sep-14 20:27N 42°37' W 070°39'0 0.0
2017-Sep-14 20:01N 42°37' W 070°39'0 0.0
2017-Sep-14 19:24N 42°37' W 070°39'0 0.0
2017-Sep-14 19:00N 42°37' W 070°39'0 0.0
2017-Sep-14 18:27N 42°37' W 070°39'0 0.0
2017-Sep-14 18:00N 42°37' W 070°39'0 0.0
2017-Sep-14 17:24N 42°37' W 070°39'0 0.0
2017-Sep-14 17:00N 42°37' W 070°39'0 0.0
2017-Sep-14 16:30N 42°37' W 070°39'0 0.0
2017-Sep-14 15:57N 42°37' W 070°39'0 0.0
2017-Sep-14 15:30N 42°37' W 070°39'0 0.0
2017-Sep-14 14:57N 42°37' W 070°39'0 0.0
2017-Sep-14 14:30N 42°37' W 070°39'0 0.0
2017-Sep-14 14:00N 42°37' W 070°39'0 0.0
2017-Sep-14 13:27N 42°37' W 070°39'0 0.0
2017-Sep-14 13:00N 42°37' W 070°39'  
Track history (hours):
 
Tides and Currents Weather Stations Pressure Air Temp Water Temp Dewpoint Dewpoint Depression Visibility Wind Speed Wind Dir Waves Ship Positions

Onnered

Owner: H&L Axelsson, Inc., Cape May, NJ. More information available from US FCC via Universal Licensing System and Coast Guard Vessel Documentation Center.

Last reported at 2017-Sep-24 12:40 UTC. Time now 2017-Nov-20 09:47 UTC.
Position N 38°57' W 074°52'.
Warning: this ship's position is 56 days out of date.

Length 18 m.

Type: Fishing. MMSI: 367539750.

Date/timePositionNaut miles runAvg speedWind from/ knotsBaromVisibWave heightAir tempDewpointWater temp
2017-Sep-24 12:40N 38°57' W 074°52'1 8.2
2017-Sep-24 12:30N 38°56' W 074°52'5 9.2
2017-Sep-24 12:00N 38°58' W 074°47'5 9.2
2017-Sep-24 11:28N 39°02' W 074°42'4 9.1
2017-Sep-24 10:59N 39°04' W 074°37'5 9.1
2017-Sep-24 10:29N 39°07' W 074°33'5 9.0
2017-Sep-24 09:59N 39°10' W 074°29'6 9.0
2017-Sep-24 09:20N 39°15' W 074°23'4 9.0
2017-Sep-24 08:51N 39°18' W 074°20'3 9.0
2017-Sep-24 08:29N 39°20' W 074°16'5 9.0
2017-Sep-24 07:59N 39°23' W 074°12'5 8.9
2017-Sep-24 07:26N 39°26' W 074°07'4 8.8
2017-Sep-24 06:56N 39°29' W 074°03'  
2017-Sep-18 21:33N 42°20' W 070°37'0 7.7
2017-Sep-18 21:30N 42°20' W 070°37'4 8.0
2017-Sep-18 21:00N 42°24' W 070°38'4 8.6
2017-Sep-18 20:30N 42°28' W 070°39'4 8.6
2017-Sep-18 19:59N 42°33' W 070°40'4 8.0
2017-Sep-18 19:30N 42°36' W 070°40'1 1.1
2017-Sep-18 18:58N 42°37' W 070°39'0 0.0
2017-Sep-18 18:28N 42°37' W 070°39'0 0.0
2017-Sep-18 17:55N 42°37' W 070°39'0 0.0
2017-Sep-18 17:28N 42°37' W 070°39'0 0.0
2017-Sep-18 16:55N 42°37' W 070°39'0 0.0
2017-Sep-18 16:28N 42°37' W 070°39'0 0.0
2017-Sep-18 15:55N 42°37' W 070°39'0 0.0
2017-Sep-18 15:25N 42°37' W 070°39'0 0.0
2017-Sep-18 14:58N 42°37' W 070°39'0 0.0
2017-Sep-18 14:28N 42°37' W 070°39'0 0.0
2017-Sep-18 13:58N 42°37' W 070°39'0 0.0
2017-Sep-18 13:28N 42°37' W 070°39'0 0.0
2017-Sep-18 12:55N 42°37' W 070°39'0 0.0
2017-Sep-18 12:28N 42°37' W 070°39'0 0.0
2017-Sep-18 11:58N 42°37' W 070°39'0 0.0
2017-Sep-18 11:25N 42°37' W 070°39'0 0.0
2017-Sep-18 10:55N 42°37' W 070°39'1 2.2
2017-Sep-18 10:30N 42°36' W 070°40'2 3.5
2017-Sep-18 10:00N 42°35' W 070°38'3 6.7
2017-Sep-18 09:30N 42°37' W 070°34'3 6.3
2017-Sep-18 09:00N 42°39' W 070°32'3 6.6
2017-Sep-18 08:30N 42°42' W 070°32'4 6.6
2017-Sep-18 07:57N 42°45' W 070°36'13 1.3
2017-Sep-17 21:49N 42°56' W 070°28'2 8.0
2017-Sep-17 21:30N 42°54' W 070°29'4 7.9
2017-Sep-17 21:00N 42°50' W 070°29'4 7.9
2017-Sep-17 20:31N 42°46' W 070°30'4 8.0
2017-Sep-17 20:00N 42°42' W 070°31'4 8.1
2017-Sep-17 19:30N 42°38' W 070°33'4 7.5
2017-Sep-17 19:01N 42°36' W 070°37'3 5.7
2017-Sep-17 18:31N 42°35' W 070°40'2 4.9
2017-Sep-17 18:00N 42°37' W 070°39'0 0.0
2017-Sep-17 17:30N 42°37' W 070°39'0 0.0
2017-Sep-17 17:00N 42°37' W 070°39'0 0.0
2017-Sep-17 16:30N 42°37' W 070°39'0 0.0
2017-Sep-17 15:51N 42°37' W 070°39'0 0.0
2017-Sep-17 15:30N 42°37' W 070°39'0 0.0
2017-Sep-17 15:00N 42°37' W 070°39'0 0.0
2017-Sep-17 14:27N 42°37' W 070°39'0 0.0
2017-Sep-17 14:00N 42°37' W 070°39'0 0.0
2017-Sep-17 13:30N 42°37' W 070°39'0 0.0
2017-Sep-17 12:57N 42°37' W 070°39'0 0.0
2017-Sep-17 12:27N 42°37' W 070°39'0 0.0
2017-Sep-17 11:57N 42°37' W 070°39'0 0.0
2017-Sep-17 11:30N 42°37' W 070°39'0 0.0
2017-Sep-17 10:57N 42°37' W 070°39'0 0.0
2017-Sep-17 10:24N 42°37' W 070°39'0 0.0
2017-Sep-17 10:00N 42°37' W 070°39'0 0.0
2017-Sep-17 09:27N 42°37' W 070°39'0 0.0
2017-Sep-17 09:01N 42°37' W 070°39'0 0.0
2017-Sep-17 08:30N 42°37' W 070°39'0 0.0
2017-Sep-17 07:57N 42°37' W 070°39'0 0.0
2017-Sep-17 07:30N 42°37' W 070°39'0 0.0
2017-Sep-17 06:57N 42°37' W 070°39'0 0.0
2017-Sep-17 06:27N 42°37' W 070°39'0 0.0
2017-Sep-17 05:51N 42°37' W 070°39'0 0.0
2017-Sep-17 05:27N 42°37' W 070°39'0 0.0
2017-Sep-17 04:54N 42°37' W 070°39'0 0.0
2017-Sep-17 04:30N 42°37' W 070°39'0 0.0
2017-Sep-17 04:00N 42°37' W 070°39'0 0.0
2017-Sep-17 03:30N 42°37' W 070°39'0 0.0
2017-Sep-17 02:57N 42°37' W 070°39'0 0.0
2017-Sep-17 02:27N 42°37' W 070°39'0 0.0
2017-Sep-17 02:00N 42°37' W 070°39'0 0.0
2017-Sep-17 01:30N 42°37' W 070°39'0 0.0
2017-Sep-17 00:57N 42°37' W 070°39'0 0.0
2017-Sep-17 00:27N 42°37' W 070°39'0 0.0
2017-Sep-17 00:00N 42°37' W 070°39'0 0.0
2017-Sep-16 23:30N 42°37' W 070°39'0 0.0
2017-Sep-16 23:00N 42°37' W 070°39'0 0.0
2017-Sep-16 22:27N 42°37' W 070°39'0 0.0
2017-Sep-16 22:00N 42°37' W 070°39'0 0.0
2017-Sep-16 21:24N 42°37' W 070°39'0 0.0
2017-Sep-16 20:57N 42°37' W 070°39'0 0.0
2017-Sep-16 20:30N 42°37' W 070°39'0 0.0
2017-Sep-16 20:00N 42°37' W 070°39'0 0.0
2017-Sep-16 19:30N 42°37' W 070°39'0 0.0
2017-Sep-16 18:57N 42°37' W 070°39'0 0.0
2017-Sep-16 18:30N 42°37' W 070°39'0 0.0
2017-Sep-16 17:57N 42°37' W 070°39'0 0.0
2017-Sep-16 17:30N 42°37' W 070°39'0 0.0
2017-Sep-16 16:57N 42°37' W 070°39'0 0.0
2017-Sep-16 16:24N 42°37' W 070°39'0 0.0
2017-Sep-16 16:00N 42°37' W 070°39'0 0.0
2017-Sep-16 15:27N 42°37' W 070°39'0 0.0
2017-Sep-16 15:00N 42°37' W 070°39'0 0.0
2017-Sep-16 14:27N 42°37' W 070°39'0 0.0
2017-Sep-16 13:51N 42°37' W 070°39'0 0.0
2017-Sep-16 13:31N 42°37' W 070°39'0 0.0
2017-Sep-16 13:00N 42°37' W 070°39'0 0.0
2017-Sep-16 12:19N 42°37' W 070°39'0 0.0
2017-Sep-16 12:01N 42°37' W 070°39'0 0.0
2017-Sep-16 11:30N 42°37' W 070°39'0 0.0
2017-Sep-16 11:01N 42°37' W 070°39'0 0.0
2017-Sep-16 10:24N 42°37' W 070°39'0 0.0
2017-Sep-16 09:51N 42°37' W 070°39'0 0.0
2017-Sep-16 09:30N 42°37' W 070°39'0 0.0
2017-Sep-16 08:57N 42°37' W 070°39'0 0.0
2017-Sep-16 08:24N 42°37' W 070°39'0 0.0
2017-Sep-16 07:57N 42°37' W 070°39'0 0.0
2017-Sep-16 07:21N 42°37' W 070°39'0 0.0
2017-Sep-16 07:01N 42°37' W 070°39'0 0.0
2017-Sep-16 06:21N 42°37' W 070°39'0 0.0
2017-Sep-16 05:57N 42°37' W 070°39'0 0.0
2017-Sep-16 05:25N 42°37' W 070°39'0 0.0
2017-Sep-16 04:45N 42°37' W 070°39'0 0.0
2017-Sep-16 04:27N 42°37' W 070°39'0 0.0
2017-Sep-16 03:52N 42°37' W 070°39'0 0.0
2017-Sep-16 03:31N 42°37' W 070°39'0 0.0
2017-Sep-16 02:57N 42°37' W 070°39'0 0.0
2017-Sep-16 02:30N 42°37' W 070°39'0 0.0
2017-Sep-16 02:01N 42°37' W 070°39'0 0.0
2017-Sep-16 01:30N 42°37' W 070°39'0 0.0
2017-Sep-16 00:54N 42°37' W 070°39'0 0.0
2017-Sep-16 00:30N 42°37' W 070°39'0 0.0
2017-Sep-16 00:00N 42°37' W 070°39'0 0.0
2017-Sep-15 23:27N 42°37' W 070°39'0 0.0
2017-Sep-15 22:57N 42°37' W 070°39'0 0.0
2017-Sep-15 22:24N 42°37' W 070°39'0 0.0
2017-Sep-15 22:00N 42°37' W 070°39'0 0.0
2017-Sep-15 21:27N 42°37' W 070°39'0 0.0
2017-Sep-15 21:00N 42°37' W 070°39'0 0.0
2017-Sep-15 20:30N 42°37' W 070°39'0 0.0
2017-Sep-15 20:00N 42°37' W 070°39'0 0.0
2017-Sep-15 19:27N 42°37' W 070°39'0 0.0
2017-Sep-15 18:42N 42°37' W 070°39'0 0.0
2017-Sep-15 18:27N 42°37' W 070°39'0 0.0
2017-Sep-15 18:00N 42°37' W 070°39'0 0.0
2017-Sep-15 17:30N 42°37' W 070°39'0 0.0
2017-Sep-15 16:57N 42°37' W 070°39'0 0.0
2017-Sep-15 16:30N 42°37' W 070°39'0 0.0
2017-Sep-15 16:00N 42°37' W 070°39'0 0.0
2017-Sep-15 15:31N 42°37' W 070°39'0 0.0
2017-Sep-15 15:00N 42°37' W 070°39'0 0.0
2017-Sep-15 14:31N 42°37' W 070°39'0 0.0
2017-Sep-15 13:48N 42°37' W 070°39'0 0.0
2017-Sep-15 13:30N 42°37' W 070°39'0 0.0
2017-Sep-15 13:00N 42°37' W 070°39'0 0.0
2017-Sep-15 12:21N 42°37' W 070°39'0 0.0
2017-Sep-15 11:57N 42°37' W 070°39'0 0.0
2017-Sep-15 11:30N 42°37' W 070°39'0 0.0
2017-Sep-15 10:52N 42°37' W 070°39'0 0.0
2017-Sep-15 10:27N 42°37' W 070°39'0 0.0
2017-Sep-15 10:00N 42°37' W 070°39'0 0.0
2017-Sep-15 09:27N 42°37' W 070°39'0 0.0
2017-Sep-15 08:57N 42°37' W 070°39'0 0.0
2017-Sep-15 08:28N 42°37' W 070°39'0 0.0
2017-Sep-15 08:00N 42°37' W 070°39'0 0.0
2017-Sep-15 07:27N 42°37' W 070°39'0 0.0
2017-Sep-15 06:57N 42°37' W 070°39'0 0.0
2017-Sep-15 06:30N 42°37' W 070°39'0 0.0
2017-Sep-15 05:57N 42°37' W 070°39'0 0.0
2017-Sep-15 05:28N 42°37' W 070°39'0 0.0
2017-Sep-15 04:45N 42°37' W 070°39'0 0.0
2017-Sep-15 04:30N 42°37' W 070°39'0 0.0
2017-Sep-15 03:52N 42°37' W 070°39'0 0.0
2017-Sep-15 03:30N 42°37' W 070°39'0 0.0
2017-Sep-15 02:54N 42°37' W 070°39'0 0.0
2017-Sep-15 02:28N 42°37' W 070°39'0 0.0
2017-Sep-15 01:57N 42°37' W 070°39'0 0.0
2017-Sep-15 01:27N 42°37' W 070°39'0 0.0
2017-Sep-15 00:58N 42°37' W 070°39'0 0.0
2017-Sep-15 00:27N 42°37' W 070°39'0 0.0
2017-Sep-15 00:00N 42°37' W 070°39'0 0.0
2017-Sep-14 23:31N 42°37' W 070°39'0 0.0
2017-Sep-14 22:57N 42°37' W 070°39'0 0.0
2017-Sep-14 22:30N 42°37' W 070°39'0 0.0
2017-Sep-14 21:51N 42°37' W 070°39'0 0.0
2017-Sep-14 21:25N 42°37' W 070°39'0 0.0
2017-Sep-14 21:00N 42°37' W 070°39'0 0.0
2017-Sep-14 20:27N 42°37' W 070°39'0 0.0
2017-Sep-14 20:01N 42°37' W 070°39'0 0.0
2017-Sep-14 19:24N 42°37' W 070°39'0 0.0
2017-Sep-14 19:00N 42°37' W 070°39'0 0.0
2017-Sep-14 18:27N 42°37' W 070°39'0 0.0
2017-Sep-14 18:00N 42°37' W 070°39'0 0.0
2017-Sep-14 17:24N 42°37' W 070°39'0 0.0
2017-Sep-14 17:00N 42°37' W 070°39'0 0.0
2017-Sep-14 16:30N 42°37' W 070°39'0 0.0
2017-Sep-14 15:57N 42°37' W 070°39'0 0.0
2017-Sep-14 15:30N 42°37' W 070°39'0 0.0
2017-Sep-14 14:57N 42°37' W 070°39'0 0.0
2017-Sep-14 14:30N 42°37' W 070°39'0 0.0
2017-Sep-14 14:00N 42°37' W 070°39'0 0.0
2017-Sep-14 13:27N 42°37' W 070°39'0 0.0
2017-Sep-14 13:00N 42°37' W 070°39'  

Dump ship's entire track history